Terminal Aerodrome Forecast
Issued by NWS Austin/San Antonio, TX

Current Version | Previous Version | Text Only | Print | Product List | Glossary On
Versions: 1 2 3 4 5 6 7 8 9 10 11 12 13 14 15 16 17 18 19
000
FTUS44 KEWX 292037 AAA
TAFDRT
TAF AMD
KDRT 292037Z 2921/3018 09008KT P6SM VCTS BKN040CB BKN120
     FM300200 07007KT P6SM SCT050 BKN120 BKN250
     FM301000 05005KT P6SM OVC030
      TEMPO 3011/3013 OVC009
     FM301600 09006KT P6SM BKN035 BKN050=

USA.gov is the U.S. government's official web portal to all federal, state and local government web resources and services.